Time;durP1;ratioP1;P1;durP2;ratioP2;P2;SDS_P1;SDS_P2;PMS_P1;PMS_P2;Temp;Humidity;BMP_temperature;BMP_pressure;BME280_temperature;BME280_humidity;BME280_pressure;Samples;Min_cycle;Max_cycle;Signal;HPM_P1;HPM_P2
2021/04/24 00:01:01;;;;;;;;;10.00;10.00;;;;;;;;3552179;39;112308;-67
2021/04/24 00:03:27;;;;;;;;;10.75;10.75;;;;;;;;3553838;39;114449;-68
2021/04/24 00:05:53;;;;;;;;;11.00;9.50;;;;;;;;3556827;39;111960;-69
2021/04/24 00:08:19;;;;;;;;;9.50;9.50;;;;;;;;3553899;39;114007;-68
2021/04/24 00:10:47;;;;;;;;;10.00;10.00;;;;;;;;3554178;39;112072;-68
2021/04/24 00:13:13;;;;;;;;;9.00;6.50;;;;;;;;3554408;39;113244;-67
2021/04/24 00:15:40;;;;;;;;;10.25;10.25;;;;;;;;3553783;39;113773;-68
2021/04/24 00:18:07;;;;;;;;;10.00;10.00;;;;;;;;3553978;39;111985;-68
2021/04/24 00:20:34;;;;;;;;;10.50;10.00;;;;;;;;3554169;39;115768;-68
2021/04/24 00:23:00;;;;;;;;;8.00;8.00;;;;;;;;3551712;39;115351;-68
2021/04/24 00:25:26;;;;;;;;;11.00;11.00;;;;;;;;3554118;39;111908;-68
2021/04/24 00:27:54;;;;;;;;;10.50;10.50;;;;;;;;3556339;39;113350;-68
2021/04/24 00:30:20;;;;;;;;;14.25;11.50;;;;;;;;3552062;39;112312;-68
2021/04/24 00:32:47;;;;;;;;;9.50;9.50;;;;;;;;3554183;39;113723;-67
2021/04/24 00:35:14;;;;;;;;;11.50;11.25;;;;;;;;3553629;39;114341;-68
2021/04/24 00:37:40;;;;;;;;;10.00;8.75;;;;;;;;3551757;39;112883;-68
2021/04/24 00:40:07;;;;;;;;;10.75;9.75;;;;;;;;3552488;39;113288;-68
2021/04/24 00:42:33;;;;;;;;;10.50;10.50;;;;;;;;3553724;39;114314;-67
2021/04/24 00:45:00;;;;;;;;;11.25;10.00;;;;;;;;3554012;39;113219;-68
2021/04/24 00:47:27;;;;;;;;;12.00;12.00;;;;;;;;3553982;39;113181;-68
2021/04/24 00:49:53;;;;;;;;;10.00;9.00;;;;;;;;3556232;39;114160;-68
2021/04/24 00:52:19;;;;;;;;;11.50;10.00;;;;;;;;3554226;39;113435;-68
2021/04/24 00:54:46;;;;;;;;;12.50;10.75;;;;;;;;3553483;39;113921;-67
2021/04/24 00:57:12;;;;;;;;;11.75;10.50;;;;;;;;3554144;39;111896;-67
2021/04/24 00:59:39;;;;;;;;;14.00;10.50;;;;;;;;3554000;39;113918;-68
2021/04/24 01:02:08;;;;;;;;;9.25;8.50;;;;;;;;3553580;39;113852;-67
2021/04/24 01:04:34;;;;;;;;;13.75;11.00;;;;;;;;3553983;39;112350;-66
2021/04/24 01:07:00;;;;;;;;;14.50;14.00;;;;;;;;3551745;39;113450;-67
2021/04/24 01:09:26;;;;;;;;;11.00;11.00;;;;;;;;3553546;39;113782;-67
2021/04/24 01:11:52;;;;;;;;;8.50;8.50;;;;;;;;3556600;39;112258;-67
2021/04/24 01:14:18;;;;;;;;;10.50;7.75;;;;;;;;3553488;39;114567;-67
2021/04/24 01:16:47;;;;;;;;;11.75;10.75;;;;;;;;3554173;39;111792;-67
2021/04/24 01:19:14;;;;;;;;;14.00;11.00;;;;;;;;3554269;39;113415;-67
2021/04/24 01:21:41;;;;;;;;;13.50;12.25;;;;;;;;3553492;39;114239;-67
2021/04/24 01:24:12;;;;;;;;;14.50;12.00;;;;;;;;3553936;39;112032;-67
2021/04/24 01:26:38;;;;;;;;;14.75;12.25;;;;;;;;3553974;39;113293;-67
2021/04/24 01:29:04;;;;;;;;;7.25;7.25;;;;;;;;3553064;39;113928;-66
2021/04/24 01:31:32;;;;;;;;;12.25;9.25;;;;;;;;3554540;39;112139;-66
2021/04/24 01:33:58;;;;;;;;;10.75;10.25;;;;;;;;3553284;39;113947;-67
2021/04/24 01:36:24;;;;;;;;;15.00;11.25;;;;;;;;3553758;39;112073;-67
2021/04/24 01:38:50;;;;;;;;;10.00;9.25;;;;;;;;3553793;39;113192;-68
2021/04/24 01:41:17;;;;;;;;;10.00;10.00;;;;;;;;3553420;39;113880;-67
2021/04/24 01:43:49;;;;;;;;;12.00;12.00;;;;;;;;3553644;39;114047;-67
2021/04/24 01:46:15;;;;;;;;;8.25;8.25;;;;;;;;3552000;39;112873;-68
2021/04/24 01:48:41;;;;;;;;;12.25;10.00;;;;;;;;3553377;39;113915;-67
2021/04/24 01:51:07;;;;;;;;;10.00;8.75;;;;;;;;3552962;39;111959;-67
2021/04/24 01:53:33;;;;;;;;;9.50;9.50;;;;;;;;3552069;39;113575;-67
2021/04/24 01:56:00;;;;;;;;;11.25;10.00;;;;;;;;3553748;39;111874;-67
2021/04/24 01:58:27;;;;;;;;;12.50;12.00;;;;;;;;3553774;39;113929;-67
2021/04/24 02:00:55;;;;;;;;;13.25;13.00;;;;;;;;3553269;39;114288;-67
2021/04/24 02:03:23;;;;;;;;;9.25;9.00;;;;;;;;3553781;39;111825;-67
2021/04/24 02:05:49;;;;;;;;;9.00;9.00;;;;;;;;3553779;39;113885;-68
2021/04/24 02:08:16;;;;;;;;;8.00;8.00;;;;;;;;3553539;39;112735;-67
2021/04/24 02:10:45;;;;;;;;;11.50;10.00;;;;;;;;3553649;39;112890;-67
2021/04/24 02:13:12;;;;;;;;;10.00;10.00;;;;;;;;3553875;39;113474;-68
2021/04/24 02:15:39;;;;;;;;;11.00;10.00;;;;;;;;3555751;39;114289;-67
2021/04/24 02:18:06;;;;;;;;;12.00;11.75;;;;;;;;3553597;39;113782;-67
2021/04/24 02:20:33;;;;;;;;;9.00;8.00;;;;;;;;3553417;39;114069;-67
2021/04/24 02:22:59;;;;;;;;;12.25;9.50;;;;;;;;3551615;39;112045;-67
2021/04/24 02:25:25;;;;;;;;;8.75;8.75;;;;;;;;3553635;39;113277;-66
2021/04/24 02:27:51;;;;;;;;;10.00;8.00;;;;;;;;3553160;39;113790;-67
2021/04/24 02:30:18;;;;;;;;;9.75;9.50;;;;;;;;3553578;39;112153;-66
2021/04/24 02:32:46;;;;;;;;;12.00;10.25;;;;;;;;3553488;39;113736;-67
2021/04/24 02:35:15;;;;;;;;;10.50;7.75;;;;;;;;3553119;39;112668;-67
2021/04/24 02:37:41;;;;;;;;;8.75;8.00;;;;;;;;3554298;39;112223;-67
2021/04/24 02:40:08;;;;;;;;;8.00;8.00;;;;;;;;3553130;39;114044;-67
2021/04/24 02:42:34;;;;;;;;;9.00;9.00;;;;;;;;3553593;39;111779;-67
2021/04/24 02:45:05;;;;;;;;;11.00;11.00;;;;;;;;3551314;39;113638;-68
2021/04/24 02:47:31;;;;;;;;;8.50;8.00;;;;;;;;3551395;39;113919;-67
2021/04/24 02:49:58;;;;;;;;;11.75;9.50;;;;;;;;3553923;39;112030;-67
2021/04/24 02:52:24;;;;;;;;;13.00;11.00;;;;;;;;3552086;39;113599;-68
2021/04/24 02:54:50;;;;;;;;;8.75;8.75;;;;;;;;3553698;39;114215;-67
2021/04/24 02:57:16;;;;;;;;;7.00;6.00;;;;;;;;3552226;39;112496;-67
2021/04/24 02:59:42;;;;;;;;;12.00;8.75;;;;;;;;3555745;39;112620;-68
2021/04/24 03:02:08;;;;;;;;;9.00;9.00;;;;;;;;3553484;39;111904;-68
2021/04/24 03:04:34;;;;;;;;;9.00;8.75;;;;;;;;3553378;39;113480;-68
2021/04/24 03:07:01;;;;;;;;;11.00;9.00;;;;;;;;3552676;39;113975;-67
2021/04/24 03:09:27;;;;;;;;;8.00;8.00;;;;;;;;3553466;39;113417;-68
2021/04/24 03:11:53;;;;;;;;;10.50;10.50;;;;;;;;3553211;39;113387;-68
2021/04/24 03:14:19;;;;;;;;;9.50;8.75;;;;;;;;3552774;39;113836;-67
2021/04/24 03:16:45;;;;;;;;;11.00;8.50;;;;;;;;3553048;39;111942;-68
2021/04/24 03:19:12;;;;;;;;;9.50;9.50;;;;;;;;3553156;39;114728;-67
2021/04/24 03:21:38;;;;;;;;;12.25;11.00;;;;;;;;3554752;39;112208;-67
2021/04/24 03:24:06;;;;;;;;;12.25;12.25;;;;;;;;3553084;39;113235;-67
2021/04/24 03:26:32;;;;;;;;;15.33;13.67;;;;;;;;3552532;39;113514;-67
2021/04/24 03:28:58;;;;;;;;;12.00;12.00;;;;;;;;3548731;39;112087;-69
2021/04/24 03:31:24;;;;;;;;;12.00;12.00;;;;;;;;3553124;39;113175;-68
2021/04/24 03:33:50;;;;;;;;;11.00;11.00;;;;;;;;3552260;39;114026;-68
2021/04/24 03:36:16;;;;;;;;;12.00;9.50;;;;;;;;3552985;39;112449;-68
2021/04/24 03:38:42;;;;;;;;;8.50;8.00;;;;;;;;3554846;39;113519;-69
2021/04/24 03:41:10;;;;;;;;;11.33;9.00;;;;;;;;3555418;39;114476;-68
2021/04/24 03:43:36;;;;;;;;;14.50;12.00;;;;;;;;3556859;39;113267;-67
2021/04/24 03:46:02;;;;;;;;;17.33;13.00;;;;;;;;3556097;39;114086;-67
2021/04/24 03:48:28;;;;;;;;;14.67;13.67;;;;;;;;3555000;39;112227;-67
2021/04/24 03:50:54;;;;;;;;;14.67;12.00;;;;;;;;3557028;39;113282;-68
2021/04/24 03:53:20;;;;;;;;;11.50;11.00;;;;;;;;3554991;39;114329;-67
2021/04/24 03:55:47;;;;;;;;;13.00;11.00;;;;;;;;3554751;39;112360;-67
2021/04/24 03:58:15;;;;;;;;;15.25;13.25;;;;;;;;3557156;39;113370;-68
2021/04/24 04:00:42;;;;;;;;;11.00;9.00;;;;;;;;3555315;39;113480;-67
2021/04/24 04:03:08;;;;;;;;;17.00;12.00;;;;;;;;3552765;39;112925;-67
2021/04/24 04:05:35;;;;;;;;;10.75;8.75;;;;;;;;3553415;39;114047;-69
2021/04/24 04:08:02;;;;;;;;;14.00;11.75;;;;;;;;3552998;39;112788;-68
2021/04/24 04:10:29;;;;;;;;;8.25;8.00;;;;;;;;3554048;39;113741;-69
2021/04/24 04:12:55;;;;;;;;;10.50;10.50;;;;;;;;3551596;39;113004;-68
2021/04/24 04:15:23;;;;;;;;;11.00;11.00;;;;;;;;3554164;39;111799;-68
2021/04/24 04:17:52;;;;;;;;;9.00;8.25;;;;;;;;3552075;39;113253;-69
2021/04/24 04:20:19;;;;;;;;;9.50;8.00;;;;;;;;3553496;39;113764;-68
2021/04/24 04:22:45;;;;;;;;;10.25;9.75;;;;;;;;3557255;39;111910;-69
2021/04/24 04:25:11;;;;;;;;;9.00;9.00;;;;;;;;3558142;39;113303;-67
2021/04/24 04:27:37;;;;;;;;;10.00;8.50;;;;;;;;3555709;39;112844;-69
2021/04/24 04:30:04;;;;;;;;;12.25;11.75;;;;;;;;3556284;39;114256;-68
2021/04/24 04:32:31;;;;;;;;;8.33;8.33;;;;;;;;3556234;39;114099;-68
2021/04/24 04:34:59;;;;;;;;;8.67;7.00;;;;;;;;3550287;39;112040;-68
2021/04/24 04:37:25;;;;;;;;;9.00;8.00;;;;;;;;3553960;39;113828;-69
2021/04/24 04:39:51;;;;;;;;;9.00;9.00;;;;;;;;3553483;39;113918;-69
2021/04/24 04:42:17;;;;;;;;;12.00;8.00;;;;;;;;3551778;39;112523;-69
2021/04/24 04:44:43;;;;;;;;;11.00;11.00;;;;;;;;3553740;39;113512;-69
2021/04/24 04:47:09;;;;;;;;;13.33;11.33;;;;;;;;3555974;39;113823;-69
2021/04/24 04:49:36;;;;;;;;;12.00;11.67;;;;;;;;3553700;39;113500;-69
2021/04/24 04:52:02;;;;;;;;;11.00;9.00;;;;;;;;3549202;39;114037;-69
2021/04/24 04:54:28;;;;;;;;;12.00;11.00;;;;;;;;3554120;39;111958;-67
2021/04/24 04:56:54;;;;;;;;;16.67;13.33;;;;;;;;3553683;39;113256;-67
2021/04/24 04:59:20;;;;;;;;;11.67;11.33;;;;;;;;3553470;39;113992;-68
2021/04/24 05:01:46;;;;;;;;;11.67;9.00;;;;;;;;3553797;39;112296;-69
2021/04/24 05:04:12;;;;;;;;;12.00;11.00;;;;;;;;3553842;39;113628;-68
2021/04/24 05:06:39;;;;;;;;;12.33;11.00;;;;;;;;3551420;39;112984;-68
2021/04/24 05:09:05;;;;;;;;;13.33;12.00;;;;;;;;3556517;39;112218;-68
2021/04/24 05:11:31;;;;;;;;;16.00;12.00;;;;;;;;3550107;39;113352;-68
2021/04/24 05:13:57;;;;;;;;;11.67;11.00;;;;;;;;3551615;39;112097;-68
2021/04/24 05:16:23;;;;;;;;;11.00;11.00;;;;;;;;3553937;39;113873;-69
2021/04/24 05:18:49;;;;;;;;;12.75;11.75;;;;;;;;3553150;39;113921;-69
2021/04/24 05:21:15;;;;;;;;;12.50;9.50;;;;;;;;3553763;39;112824;-68
2021/04/24 05:23:42;;;;;;;;;11.25;9.00;;;;;;;;3551556;39;113453;-68
2021/04/24 05:26:08;;;;;;;;;10.75;9.00;;;;;;;;3553353;39;113896;-69
2021/04/24 05:28:34;;;;;;;;;8.75;8.75;;;;;;;;3556344;39;112105;-68
2021/04/24 05:31:00;;;;;;;;;12.33;11.00;;;;;;;;3553303;39;115184;-69
2021/04/24 05:33:27;;;;;;;;;9.67;9.00;;;;;;;;3551631;39;112137;-69
2021/04/24 05:35:53;;;;;;;;;10.33;10.33;;;;;;;;3553618;39;113474;-69
2021/04/24 05:38:19;;;;;;;;;8.67;8.33;;;;;;;;3553250;39;113893;-68
2021/04/24 05:40:46;;;;;;;;;7.33;7.33;;;;;;;;3553491;39;112381;-68
2021/04/24 05:43:12;;;;;;;;;12.67;9.00;;;;;;;;3553792;39;113394;-68
2021/04/24 05:45:38;;;;;;;;;11.33;9.00;;;;;;;;3553108;39;114194;-69
2021/04/24 05:48:05;;;;;;;;;17.00;16.00;;;;;;;;3553428;39;111988;-68
2021/04/24 05:50:31;;;;;;;;;13.00;11.67;;;;;;;;3555860;39;113213;-67
2021/04/24 05:52:57;;;;;;;;;11.50;11.00;;;;;;;;3553567;39;112246;-68
2021/04/24 05:55:23;;;;;;;;;11.33;11.33;;;;;;;;3553638;39;113602;-69
2021/04/24 05:57:50;;;;;;;;;11.00;11.00;;;;;;;;3553245;39;113991;-68
2021/04/24 06:00:19;;;;;;;;;13.00;12.00;;;;;;;;3553613;39;111695;-68
2021/04/24 06:02:45;;;;;;;;;12.33;12.00;;;;;;;;3553535;39;113734;-68
2021/04/24 06:05:12;;;;;;;;;13.67;11.67;;;;;;;;3553221;39;113779;-68
2021/04/24 06:07:39;;;;;;;;;12.67;12.67;;;;;;;;3553458;39;111911;-68
2021/04/24 06:10:06;;;;;;;;;10.25;10.25;;;;;;;;3553562;39;113632;-67
2021/04/24 06:12:32;;;;;;;;;10.67;10.67;;;;;;;;3551916;39;114235;-68
2021/04/24 06:14:59;;;;;;;;;12.00;9.00;;;;;;;;3552811;39;113721;-69
2021/04/24 06:17:25;;;;;;;;;6.25;6.25;;;;;;;;3552302;39;113998;-69
2021/04/24 06:19:51;;;;;;;;;12.00;11.00;;;;;;;;3552703;39;112123;-69
2021/04/24 06:22:17;;;;;;;;;13.33;12.00;;;;;;;;3552800;39;113277;-68
2021/04/24 06:24:43;;;;;;;;;9.00;9.00;;;;;;;;3552170;39;113957;-67
2021/04/24 06:27:09;;;;;;;;;8.00;8.00;;;;;;;;3552635;39;113110;-67
2021/04/24 06:29:35;;;;;;;;;12.00;8.50;;;;;;;;3553124;39;113349;-67
2021/04/24 06:32:02;;;;;;;;;10.75;10.75;;;;;;;;3552097;39;114411;-67
2021/04/24 06:34:28;;;;;;;;;8.75;8.00;;;;;;;;3553663;39;112152;-69
2021/04/24 06:36:54;;;;;;;;;9.00;9.00;;;;;;;;3552040;39;113776;-68
2021/04/24 06:39:20;;;;;;;;;11.00;8.00;;;;;;;;3552890;39;111803;-68
2021/04/24 06:41:47;;;;;;;;;12.00;9.25;;;;;;;;3552347;39;113315;-68
2021/04/24 06:44:13;;;;;;;;;10.25;10.25;;;;;;;;3552093;39;114166;-67
2021/04/24 06:46:39;;;;;;;;;10.00;9.25;;;;;;;;3552544;39;112315;-68
2021/04/24 06:49:06;;;;;;;;;6.25;6.25;;;;;;;;3552715;39;113877;-67
2021/04/24 06:51:32;;;;;;;;;9.00;9.00;;;;;;;;3552581;39;113758;-67
2021/04/24 06:53:58;;;;;;;;;8.00;8.00;;;;;;;;3552618;39;112271;-66
2021/04/24 06:56:24;;;;;;;;;4.25;4.25;;;;;;;;3554893;39;113574;-66
2021/04/24 06:58:50;;;;;;;;;4.00;1.00;;;;;;;;3552283;39;111884;-67
2021/04/24 07:01:16;;;;;;;;;4.75;4.75;;;;;;;;3552842;39;113514;-66
2021/04/24 07:03:42;;;;;;;;;5.00;4.50;;;;;;;;3551836;39;113787;-66
2021/04/24 07:06:09;;;;;;;;;4.00;4.00;;;;;;;;3552984;39;112597;-67
2021/04/24 07:08:35;;;;;;;;;4.25;4.00;;;;;;;;3552559;39;113240;-67
2021/04/24 07:11:01;;;;;;;;;3.25;3.00;;;;;;;;3552114;39;114123;-65
2021/04/24 07:13:27;;;;;;;;;7.00;7.00;;;;;;;;3552625;39;113414;-66
2021/04/24 07:15:53;;;;;;;;;10.25;7.00;;;;;;;;3552631;39;113416;-67
2021/04/24 07:18:19;;;;;;;;;8.50;5.00;;;;;;;;3554643;39;113924;-67
2021/04/24 07:20:46;;;;;;;;;7.75;7.75;;;;;;;;3552188;39;113470;-66
2021/04/24 07:23:12;;;;;;;;;11.50;7.25;;;;;;;;3549917;39;114239;-66
2021/04/24 07:25:38;;;;;;;;;9.50;9.50;;;;;;;;3551947;39;112618;-65
2021/04/24 07:28:05;;;;;;;;;12.00;7.25;;;;;;;;3553059;39;113310;-66
2021/04/24 07:30:31;;;;;;;;;7.00;4.25;;;;;;;;3553455;39;113961;-66
2021/04/24 07:32:57;;;;;;;;;6.00;6.00;;;;;;;;3553605;39;112050;-66
2021/04/24 07:35:23;;;;;;;;;11.00;7.00;;;;;;;;3553835;39;114090;-66
2021/04/24 07:37:49;;;;;;;;;10.00;5.00;;;;;;;;3555838;39;113812;-66
2021/04/24 07:40:16;;;;;;;;;5.00;5.00;;;;;;;;3553736;39;113255;-66
2021/04/24 07:42:42;;;;;;;;;5.75;5.00;;;;;;;;3547947;39;114005;-66
2021/04/24 07:45:09;;;;;;;;;4.50;4.50;;;;;;;;3553632;39;113126;-65
2021/04/24 07:47:36;;;;;;;;;5.00;4.75;;;;;;;;3553669;39;113465;-67
2021/04/24 07:50:02;;;;;;;;;3.00;3.00;;;;;;;;3552890;39;113568;-67
2021/04/24 07:52:28;;;;;;;;;3.00;3.00;;;;;;;;3551635;39;112879;-69
2021/04/24 07:54:55;;;;;;;;;3.00;3.00;;;;;;;;3553240;39;113595;-66
2021/04/24 07:57:22;;;;;;;;;4.00;4.00;;;;;;;;3552525;39;114064;-67
2021/04/24 07:59:48;;;;;;;;;5.25;2.00;;;;;;;;3556537;39;112361;-70
2021/04/24 08:02:14;;;;;;;;;5.00;5.00;;;;;;;;3553775;39;114100;-74
2021/04/24 08:04:40;;;;;;;;;5.00;5.00;;;;;;;;3554243;39;111767;-67
2021/04/24 08:07:07;;;;;;;;;6.50;5.50;;;;;;;;3554206;39;113190;-76
2021/04/24 08:09:35;;;;;;;;;7.00;7.00;;;;;;;;3553820;39;113988;-67
2021/04/24 08:12:01;;;;;;;;;5.25;5.25;;;;;;;;3554149;39;112405;-69
2021/04/24 08:14:28;;;;;;;;;5.00;5.00;;;;;;;;3552193;39;115182;-71
2021/04/24 08:16:55;;;;;;;;;3.67;3.67;;;;;;;;3553743;39;113858;-66
2021/04/24 08:19:23;;;;;;;;;6.67;4.33;;;;;;;;3554209;39;112324;-65
2021/04/24 08:21:49;;;;;;;;;5.33;4.00;;;;;;;;3556357;39;113267;-67
2021/04/24 08:24:16;;;;;;;;;4.00;4.00;;;;;;;;3552322;39;113382;-66
2021/04/24 08:26:43;;;;;;;;;5.00;4.00;;;;;;;;3554184;39;113444;-67
2021/04/24 08:29:09;;;;;;;;;4.67;3.00;;;;;;;;3552760;39;113310;-66
2021/04/24 08:31:36;;;;;;;;;3.00;3.00;;;;;;;;3554323;39;112131;-67
2021/04/24 08:34:02;;;;;;;;;5.00;4.00;;;;;;;;3554061;39;113965;-66
2021/04/24 08:36:28;;;;;;;;;4.00;4.00;;;;;;;;3551698;39;113032;-66
2021/04/24 08:38:54;;;;;;;;;1.33;1.33;;;;;;;;3553947;39;112181;-65
2021/04/24 08:41:20;;;;;;;;;4.00;4.00;;;;;;;;3554231;39;113374;-65
2021/04/24 08:43:48;;;;;;;;;3.00;3.00;;;;;;;;3556116;39;114544;-65
2021/04/24 08:46:15;;;;;;;;;3.67;3.67;;;;;;;;3554326;39;113555;-67
2021/04/24 08:48:42;;;;;;;;;6.00;4.67;;;;;;;;3553500;39;114137;-66
2021/04/24 08:51:08;;;;;;;;;5.00;4.33;;;;;;;;3554086;39;111863;-65
2021/04/24 08:53:34;;;;;;;;;4.67;4.67;;;;;;;;3553272;39;112358;-65
2021/04/24 08:56:00;;;;;;;;;4.00;4.00;;;;;;;;3552614;39;113124;-66
2021/04/24 08:58:27;;;;;;;;;3.00;3.00;;;;;;;;3551119;39;112838;-66
2021/04/24 09:00:53;;;;;;;;;4.00;4.00;;;;;;;;3553913;39;113451;-65
2021/04/24 09:03:21;;;;;;;;;4.50;4.00;;;;;;;;3551672;39;112843;-67
2021/04/24 09:05:49;;;;;;;;;5.00;5.00;;;;;;;;3555660;39;113059;-65
2021/04/24 09:08:21;;;;;;;;;3.00;3.00;;;;;;;;3553536;39;113835;-68
2021/04/24 09:10:47;;;;;;;;;5.00;5.00;;;;;;;;3551886;39;112063;-68
2021/04/24 09:13:17;;;;;;;;;3.33;3.33;;;;;;;;3554056;39;113880;-67
2021/04/24 09:15:43;;;;;;;;;5.00;5.00;;;;;;;;3553342;39;113792;-75
2021/04/24 09:18:11;;;;;;;;;6.67;5.00;;;;;;;;3553928;39;111865;-69
2021/04/24 09:20:44;;;;;;;;;5.33;5.33;;;;;;;;3553997;39;112440;-69
2021/04/24 09:23:11;;;;;;;;;4.67;4.67;;;;;;;;3553377;39;113919;-71
2021/04/24 09:25:39;;;;;;;;;7.00;7.00;;;;;;;;3555591;39;112167;-69
2021/04/24 09:28:06;;;;;;;;;6.25;5.00;;;;;;;;3555968;39;113546;-70
2021/04/24 09:30:33;;;;;;;;;3.75;3.75;;;;;;;;3553852;39;112869;-69
2021/04/24 09:33:03;;;;;;;;;4.00;4.00;;;;;;;;3553790;39;113649;-71
2021/04/24 09:35:38;;;;;;;;;6.00;6.00;;;;;;;;3551569;39;114233;-75
2021/04/24 09:38:04;;;;;;;;;6.00;6.00;;;;;;;;3552323;39;112081;-75
2021/04/24 09:40:31;;;;;;;;;1.00;1.00;;;;;;;;3554298;39;113537;-72
2021/04/24 09:42:58;;;;;;;;;6.00;6.00;;;;;;;;3553237;39;114421;-73
2021/04/24 09:45:32;;;;;;;;;5.33;5.00;;;;;;;;3556072;39;111937;-71
2021/04/24 09:47:58;;;;;;;;;7.00;5.00;;;;;;;;3553939;39;113572;-72
2021/04/24 09:50:29;;;;;;;;;4.75;4.75;;;;;;;;3553114;39;111940;-69
2021/04/24 09:53:10;;;;;;;;;3.50;3.00;;;;;;;;3553708;39;113257;-70
2021/04/24 09:55:38;;;;;;;;;4.00;2.25;;;;;;;;3549588;39;113776;-76
2021/04/24 09:58:04;;;;;;;;;5.00;5.00;;;;;;;;3553742;39;111964;-69
2021/04/24 10:00:30;;;;;;;;;11.33;11.33;;;;;;;;3553696;39;113263;-69
2021/04/24 10:02:58;;;;;;;;;11.33;9.00;;;;;;;;3553121;39;113650;-73
2021/04/24 10:05:24;;;;;;;;;6.67;5.67;;;;;;;;3553684;39;112093;-73
2021/04/24 10:07:51;;;;;;;;;13.67;11.00;;;;;;;;3553662;39;113761;-71
2021/04/24 10:10:24;;;;;;;;;13.00;10.67;;;;;;;;3555884;39;114301;-73
2021/04/24 10:12:55;;;;;;;;;10.00;10.00;;;;;;;;3553530;39;113328;-72
2021/04/24 10:15:34;;;;;;;;;7.00;6.00;;;;;;;;3553326;39;114151;-73
2021/04/24 10:18:00;;;;;;;;;5.67;5.33;;;;;;;;3553586;39;112067;-73
2021/04/24 10:20:26;;;;;;;;;6.33;6.00;;;;;;;;3551644;39;113361;-69
2021/04/24 10:22:53;;;;;;;;;5.00;5.00;;;;;;;;3552463;39;113814;-70
2021/04/24 10:25:20;;;;;;;;;4.00;4.00;;;;;;;;3553744;39;112081;-71
2021/04/24 10:27:46;;;;;;;;;4.33;4.00;;;;;;;;3552822;39;113356;-69
2021/04/24 10:30:14;;;;;;;;;3.67;3.67;;;;;;;;3552773;39;114003;-70
2021/04/24 10:32:42;;;;;;;;;4.00;4.00;;;;;;;;3555776;39;114833;-74
2021/04/24 10:35:10;;;;;;;;;4.00;3.00;;;;;;;;3556114;39;113889;-73
2021/04/24 10:37:36;;;;;;;;;4.00;4.00;;;;;;;;3550728;39;111993;-67
2021/04/24 10:40:03;;;;;;;;;6.00;4.00;;;;;;;;3555392;39;113883;-68
2021/04/24 10:42:30;;;;;;;;;8.67;6.67;;;;;;;;3557543;39;114662;-68
2021/04/24 10:44:57;;;;;;;;;7.00;7.00;;;;;;;;3556811;39;111978;-74
2021/04/24 10:47:42;;;;;;;;;4.67;4.67;;;;;;;;3551859;39;113448;-73
2021/04/24 10:50:10;;;;;;;;;8.67;8.33;;;;;;;;3549980;39;114170;-73
2021/04/24 10:52:36;;;;;;;;;6.67;6.67;;;;;;;;3552687;39;112061;-73
2021/04/24 10:55:21;;;;;;;;;7.00;7.00;;;;;;;;3553071;39;113343;-74
2021/04/24 10:57:48;;;;;;;;;5.00;5.00;;;;;;;;3551534;39;111858;-74
2021/04/24 11:00:15;;;;;;;;;3.67;3.67;;;;;;;;3553068;39;113325;-76
2021/04/24 11:02:42;;;;;;;;;5.00;5.00;;;;;;;;3553892;39;113823;-75
2021/04/24 11:05:27;;;;;;;;;3.67;3.67;;;;;;;;3554890;39;112104;-76
2021/04/24 11:08:14;;;;;;;;;4.33;4.00;;;;;;;;3555013;39;113296;-76
2021/04/24 11:10:44;;;;;;;;;7.50;7.00;;;;;;;;3552359;39;114387;-74
2021/04/24 11:13:10;;;;;;;;;9.25;7.75;;;;;;;;3553662;39;112099;-72
2021/04/24 11:15:38;;;;;;;;;10.25;9.00;;;;;;;;3553119;39;112191;-71
2021/04/24 11:18:06;;;;;;;;;4.75;4.00;;;;;;;;3556576;39;113861;-74
2021/04/24 11:20:49;;;;;;;;;4.25;4.25;;;;;;;;3552494;39;113205;-76
2021/04/24 11:23:33;;;;;;;;;4.00;4.00;;;;;;;;3552825;39;114115;-76
2021/04/24 11:26:01;;;;;;;;;4.25;4.25;;;;;;;;3554170;39;111926;-75
2021/04/24 11:28:27;;;;;;;;;13.50;11.75;;;;;;;;3554048;39;113406;-73
2021/04/24 11:30:55;;;;;;;;;5.25;4.75;;;;;;;;3553563;39;113988;-73
2021/04/24 11:33:30;;;;;;;;;7.25;7.25;;;;;;;;3552371;39;112005;-74
2021/04/24 11:36:19;;;;;;;;;5.75;5.75;;;;;;;;3554088;39;114248;-76
2021/04/24 11:39:05;;;;;;;;;5.00;4.50;;;;;;;;3552579;39;113989;-75
2021/04/24 11:41:33;;;;;;;;;5.25;5.25;;;;;;;;3555212;39;112077;-74
2021/04/24 11:44:00;;;;;;;;;5.75;5.50;;;;;;;;3553762;39;114746;-75
2021/04/24 11:46:33;;;;;;;;;5.00;5.00;;;;;;;;3554529;39;112115;-77
2021/04/24 11:49:04;;;;;;;;;10.75;10.75;;;;;;;;3552869;39;114221;-76
2021/04/24 11:51:34;;;;;;;;;5.25;5.25;;;;;;;;3553613;39;114244;-77
2021/04/24 11:54:00;;;;;;;;;9.00;7.25;;;;;;;;3554193;39;111954;-76
2021/04/24 11:56:26;;;;;;;;;6.00;4.75;;;;;;;;3554135;39;113209;-77
2021/04/24 11:58:53;;;;;;;;;6.00;5.00;;;;;;;;3553493;39;113979;-77
2021/04/24 12:01:23;;;;;;;;;11.25;11.00;;;;;;;;3556883;39;112080;-76
2021/04/24 12:03:49;;;;;;;;;6.50;6.00;;;;;;;;3553359;39;113722;-76
2021/04/24 12:06:31;;;;;;;;;5.75;4.00;;;;;;;;3553704;39;112003;-79
2021/04/24 12:08:59;;;;;;;;;10.00;7.50;;;;;;;;3553028;39;113886;-78
2021/04/24 12:11:25;;;;;;;;;6.00;4.00;;;;;;;;3553398;39;113980;-77
2021/04/24 12:13:51;;;;;;;;;8.25;8.25;;;;;;;;3553386;39;113130;-83
2021/04/24 12:16:17;;;;;;;;;5.00;5.00;;;;;;;;3554597;39;113683;-83
2021/04/24 12:18:43;;;;;;;;;9.00;6.00;;;;;;;;3553592;39;114232;-85
2021/04/24 12:21:10;;;;;;;;;10.00;7.00;;;;;;;;3556690;39;112635;-82
2021/04/24 12:23:36;;;;;;;;;6.00;6.00;;;;;;;;3554475;39;113475;-81
2021/04/24 12:26:02;;;;;;;;;8.75;6.25;;;;;;;;3554066;39;111690;-80
2021/04/24 12:28:28;;;;;;;;;5.50;5.50;;;;;;;;3554107;39;113719;-79
2021/04/24 12:30:55;;;;;;;;;4.00;4.00;;;;;;;;3552616;39;114231;-78
2021/04/24 12:33:22;;;;;;;;;4.00;4.00;;;;;;;;3553318;39;112191;-79
2021/04/24 12:35:52;;;;;;;;;7.50;7.50;;;;;;;;3554155;39;114952;-72
2021/04/24 12:38:19;;;;;;;;;4.50;4.50;;;;;;;;3554022;39;113963;-69
2021/04/24 12:40:46;;;;;;;;;5.75;5.50;;;;;;;;3554775;39;111933;-71
2021/04/24 12:43:14;;;;;;;;;9.75;9.00;;;;;;;;3555117;39;113302;-70
2021/04/24 12:45:43;;;;;;;;;5.00;5.00;;;;;;;;3555488;39;113973;-73
2021/04/24 12:48:12;;;;;;;;;4.25;4.25;;;;;;;;3554224;39;113295;-73
2021/04/24 12:50:41;;;;;;;;;6.00;5.25;;;;;;;;3553875;39;113855;-73
2021/04/24 12:53:08;;;;;;;;;8.00;5.50;;;;;;;;3554380;39;111867;-74
2021/04/24 12:55:35;;;;;;;;;8.00;5.75;;;;;;;;3554065;39;113312;-75
2021/04/24 12:58:01;;;;;;;;;7.00;6.25;;;;;;;;3554790;39;113869;-74
2021/04/24 13:00:29;;;;;;;;;4.25;4.25;;;;;;;;3556429;39;112020;-73
2021/04/24 13:02:55;;;;;;;;;5.00;4.50;;;;;;;;3556578;39;113530;-73
2021/04/24 13:05:30;;;;;;;;;8.00;6.75;;;;;;;;3555973;39;114261;-72
2021/04/24 13:08:04;;;;;;;;;9.75;8.25;;;;;;;;3560057;39;112344;-73
2021/04/24 13:10:30;;;;;;;;;8.50;8.50;;;;;;;;3557807;39;113952;-73
2021/04/24 13:12:57;;;;;;;;;10.50;7.75;;;;;;;;3552986;39;112062;-73
2021/04/24 13:15:23;;;;;;;;;6.50;6.50;;;;;;;;3556340;39;113333;-74
2021/04/24 13:17:50;;;;;;;;;8.75;8.75;;;;;;;;3559637;39;113447;-72
2021/04/24 13:20:26;;;;;;;;;7.75;7.75;;;;;;;;3553189;39;112129;-73
2021/04/24 13:22:52;;;;;;;;;5.00;5.00;;;;;;;;3557347;39;113295;-74
2021/04/24 13:25:30;;;;;;;;;7.50;7.50;;;;;;;;3552676;39;114338;-74
2021/04/24 13:27:56;;;;;;;;;5.25;4.25;;;;;;;;3554063;39;112121;-71
2021/04/24 13:30:23;;;;;;;;;7.00;7.00;;;;;;;;3556412;39;113264;-75
2021/04/24 13:32:56;;;;;;;;;9.00;9.00;;;;;;;;3554130;39;111766;-73
2021/04/24 13:35:22;;;;;;;;;9.25;8.00;;;;;;;;3553926;39;113228;-73
2021/04/24 13:37:56;;;;;;;;;4.00;4.00;;;;;;;;3553752;39;114047;-71
2021/04/24 13:40:25;;;;;;;;;8.00;8.00;;;;;;;;3554464;39;111736;-72
2021/04/24 13:42:52;;;;;;;;;6.50;6.00;;;;;;;;3554010;39;113407;-74
2021/04/24 13:45:19;;;;;;;;;6.75;6.00;;;;;;;;3553536;39;113768;-72
2021/04/24 13:47:46;;;;;;;;;6.00;6.00;;;;;;;;3554545;39;111866;-77
2021/04/24 13:50:16;;;;;;;;;10.00;8.00;;;;;;;;3554050;39;113691;-75
2021/04/24 13:52:42;;;;;;;;;8.25;8.25;;;;;;;;3554628;39;112178;-75
2021/04/24 13:55:08;;;;;;;;;7.75;7.25;;;;;;;;3554081;39;114238;-75
2021/04/24 13:57:35;;;;;;;;;5.25;5.25;;;;;;;;3553762;39;113789;-75
2021/04/24 14:00:02;;;;;;;;;4.75;4.75;;;;;;;;3554080;39;112351;-74
2021/04/24 14:02:28;;;;;;;;;9.75;9.75;;;;;;;;3554113;39;113543;-74
2021/04/24 14:04:54;;;;;;;;;4.00;4.00;;;;;;;;3553488;39;113917;-75
2021/04/24 14:07:20;;;;;;;;;5.00;4.00;;;;;;;;3559989;39;111990;-80
2021/04/24 14:09:46;;;;;;;;;4.75;4.00;;;;;;;;3558927;39;113250;-81
2021/04/24 14:12:13;;;;;;;;;5.00;5.00;;;;;;;;3562336;39;114096;-75
2021/04/24 14:14:40;;;;;;;;;5.25;5.00;;;;;;;;3560196;39;113651;-72
2021/04/24 14:17:07;;;;;;;;;8.00;5.75;;;;;;;;3559115;39;114021;-78
2021/04/24 14:19:33;;;;;;;;;4.00;4.00;;;;;;;;3559658;39;111940;-76
2021/04/24 14:21:59;;;;;;;;;4.50;4.25;;;;;;;;3558527;39;113437;-77